Time;durP1;ratioP1;P1;durP2;ratioP2;P2;SDS_P1;SDS_P2;PMS_P1;PMS_P2;Temp;Humidity;BMP_temperature;BMP_pressure;BME280_temperature;BME280_humidity;BME280_pressure;Samples;Min_cycle;Max_cycle;Signal;HPM_P1;HPM_P2
2022/10/04 00:01:45;;;;;;;3.97;2.00;;;;;;;11.44;78.47;95069.97;5096856;28;20181;-80
2022/10/04 00:04:19;;;;;;;4.27;2.00;;;;;;;11.28;78.38;95039.63;5112789;28;20308;-80
2022/10/04 00:06:59;;;;;;;3.43;1.80;;;;;;;11.23;78.88;95057.09;5112537;28;20172;-80
2022/10/04 00:09:35;;;;;;;3.93;2.03;;;;;;;11.16;79.15;95072.13;5113053;28;20173;-80
2022/10/04 00:12:03;;;;;;;3.33;1.93;;;;;;;11.15;78.98;95066.06;5094424;28;20210;-79
2022/10/04 00:14:37;;;;;;;2.83;2.20;;;;;;;11.18;79.41;95075.34;5112941;28;20177;-80
2022/10/04 00:17:12;;;;;;;1.97;1.63;;;;;;;11.02;79.55;95070.56;5112905;28;20257;-80
2022/10/04 00:19:46;;;;;;;5.13;2.27;;;;;;;11.00;79.60;95069.94;5112524;28;20233;-80
2022/10/04 00:22:31;;;;;;;2.40;1.87;;;;;;;11.08;80.24;95065.25;5112409;28;20181;-80
2022/10/04 00:25:05;;;;;;;1.77;1.67;;;;;;;11.15;79.52;95063.44;5112202;28;20195;-80
2022/10/04 00:27:31;;;;;;;7.67;2.03;;;;;;;10.94;78.73;95029.44;5112352;28;20186;-80
2022/10/04 00:30:02;;;;;;;1.93;1.63;;;;;;;11.21;78.41;95059.94;5112354;28;20750;-80
2022/10/04 00:32:27;;;;;;;3.47;1.67;;;;;;;11.22;78.42;95051.03;5112010;28;20651;-80
2022/10/04 00:34:54;;;;;;;4.00;1.67;;;;;;;11.30;78.66;95057.88;5112639;28;20169;-80
2022/10/04 00:37:21;;;;;;;3.80;1.50;;;;;;;11.23;77.69;95050.00;5112224;28;20529;-80
2022/10/04 00:40:13;;;;;;;1.67;1.50;;;;;;;11.20;77.40;95045.16;5112371;28;20161;-80
2022/10/04 00:42:57;;;;;;;3.43;1.50;;;;;;;11.10;77.75;95036.06;5104923;28;20240;-80
2022/10/04 00:45:29;;;;;;;1.60;1.50;;;;;;;11.10;77.72;95043.97;5112224;28;20176;-80
2022/10/04 00:48:03;;;;;;;5.47;1.40;;;;;;;10.76;77.95;95003.78;5104109;28;20561;-81
2022/10/04 00:50:42;;;;;;;2.37;1.60;;;;;;;10.98;78.60;95019.31;5112530;28;20201;-80
2022/10/04 00:53:17;;;;;;;1.70;1.60;;;;;;;11.10;77.79;95031.63;5111951;28;20165;-80
2022/10/04 00:55:53;;;;;;;1.57;1.43;;;;;;;10.96;77.95;95030.88;5105929;28;20177;-80
2022/10/04 00:58:31;;;;;;;2.33;1.40;;;;;;;10.93;77.72;95030.47;5112012;28;20247;-80
2022/10/04 01:00:58;;;;;;;2.60;1.37;;;;;;;10.53;78.00;94969.25;5110968;28;20172;-80
2022/10/04 01:03:39;;;;;;;2.97;1.77;;;;;;;10.95;77.67;95036.34;5112110;28;20188;-80
2022/10/04 01:06:09;;;;;;;4.50;1.53;;;;;;;11.05;78.50;95036.72;5112011;28;20188;-80
2022/10/04 01:08:44;;;;;;;2.70;1.20;;;;;;;10.90;77.97;95005.34;5111695;28;20247;-80
2022/10/04 01:11:16;;;;;;;2.20;1.20;;;;;;;11.07;77.85;95010.16;5093712;28;20692;-80
2022/10/04 01:13:49;;;;;;;2.80;1.67;;;;;;;11.22;77.64;95029.94;5111909;28;20176;-80
2022/10/04 01:16:21;;;;;;;1.37;1.27;;;;;;;11.27;77.17;95022.22;5111750;28;20696;-80
2022/10/04 01:18:46;;;;;;;1.73;1.50;;;;;;;11.31;76.57;95022.59;5113128;28;20290;-80
2022/10/04 01:21:17;;;;;;;1.47;1.37;;;;;;;11.38;76.31;95026.00;5115447;28;20616;-80
2022/10/04 01:23:51;;;;;;;6.30;1.77;;;;;;;11.31;75.71;95030.50;5109974;28;20176;-80
2022/10/04 01:26:29;;;;;;;17.43;1.60;;;;;;;11.24;75.58;95027.88;5115217;28;20179;-80
2022/10/04 01:29:09;;;;;;;1.00;1.00;;;;;;;11.22;76.03;95029.13;5114202;28;20703;-80
2022/10/04 01:31:38;;;;;;;5.63;1.63;;;;;;;11.21;75.68;95028.31;5115010;28;20250;-80
2022/10/04 01:34:05;;;;;;;3.57;1.10;;;;;;;11.10;76.16;95012.38;5114721;28;20176;-80
2022/10/04 01:36:31;;;;;;;1.37;1.30;;;;;;;11.16;75.79;95033.41;5115355;28;20735;-80
2022/10/04 01:38:57;;;;;;;1.67;1.23;;;;;;;11.11;75.83;95027.16;5116665;27;20172;-80
2022/10/04 01:41:40;;;;;;;2.67;1.20;;;;;;;11.16;75.89;95022.06;5117579;27;20593;-80
2022/10/04 01:44:10;;;;;;;1.40;1.30;;;;;;;11.12;75.98;95015.59;5115086;28;20283;-80
2022/10/04 01:46:38;;;;;;;4.53;1.50;;;;;;;11.12;76.07;95028.78;5115078;28;20715;-80
2022/10/04 01:49:11;;;;;;;1.47;1.20;;;;;;;11.11;75.84;95027.97;5115495;28;20256;-80
2022/10/04 01:51:44;;;;;;;2.20;1.20;;;;;;;11.09;76.15;95030.00;5114754;28;20274;-80
2022/10/04 01:54:29;;;;;;;2.20;1.20;;;;;;;11.10;75.96;95028.16;5115239;28;20192;-80
2022/10/04 01:57:00;;;;;;;6.60;1.40;;;;;;;11.11;75.90;95033.22;5095550;28;20169;-81
2022/10/04 01:59:31;;;;;;;3.07;1.47;;;;;;;11.08;75.74;95032.84;5114779;28;20173;-80
2022/10/04 02:02:08;;;;;;;1.20;1.10;;;;;;;10.78;76.08;95000.94;5114822;28;21074;-80
2022/10/04 02:04:37;;;;;;;3.00;1.30;;;;;;;10.58;76.82;95006.28;5114797;28;20169;-80
2022/10/04 02:07:11;;;;;;;2.33;1.23;;;;;;;10.71;76.80;95026.50;5114861;28;20725;-80
2022/10/04 02:09:42;;;;;;;1.93;1.30;;;;;;;10.76;77.21;95031.94;5114434;27;20717;-80
2022/10/04 02:12:08;;;;;;;1.37;1.27;;;;;;;10.67;77.43;95023.47;5114961;28;20157;-80
2022/10/04 02:14:35;;;;;;;2.17;1.70;;;;;;;10.56;76.96;95011.75;5114896;28;20173;-79
2022/10/04 02:17:04;;;;;;;1.33;1.23;;;;;;;10.60;77.47;95030.56;5114839;28;20191;-80
2022/10/04 02:19:38;;;;;;;1.90;1.40;;;;;;;10.44;77.89;94996.81;5096625;28;20226;-79
2022/10/04 02:22:06;;;;;;;4.00;1.60;;;;;;;10.68;78.65;95040.88;5114548;28;20173;-80
2022/10/04 02:24:34;;;;;;;2.63;1.90;;;;;;;10.69;78.14;95042.50;5113911;28;20651;-80
2022/10/04 02:27:00;;;;;;;1.57;1.47;;;;;;;10.57;78.25;95031.78;5096305;28;20550;-80
2022/10/04 02:29:25;;;;;;;4.93;1.90;;;;;;;10.56;78.41;95043.31;5113845;28;20209;-80
2022/10/04 02:34:36;;;;;;;3.37;1.60;;;;;;;10.58;78.74;95043.94;5112724;28;20209;-80
2022/10/04 02:37:04;;;;;;;4.10;1.83;;;;;;;10.58;78.75;95046.56;5114136;28;20173;-80
2022/10/04 02:39:37;;;;;;;3.80;2.00;;;;;;;10.57;78.67;95044.13;5114009;28;20176;-80
2022/10/04 02:42:13;;;;;;;3.00;1.87;;;;;;;10.43;79.04;95034.66;5111772;28;20235;-80
2022/10/04 02:44:43;;;;;;;2.27;1.70;;;;;;;10.30;79.70;95026.78;5116187;27;20180;-80
2022/10/04 02:47:11;;;;;;;3.07;2.07;;;;;;;10.48;80.09;95059.34;5116530;27;20173;-80
2022/10/04 02:49:38;;;;;;;2.30;1.60;;;;;;;10.53;80.12;95056.91;5114028;28;20185;-80
2022/10/04 02:52:15;;;;;;;3.70;1.80;;;;;;;10.54;79.35;95044.56;5113883;28;20207;-80
2022/10/04 02:55:01;;;;;;;6.67;1.73;;;;;;;10.61;79.46;95063.78;5116420;27;20173;-80
2022/10/04 02:57:29;;;;;;;2.10;1.70;;;;;;;10.42;80.03;95027.78;5112943;27;20175;-80
2022/10/04 03:00:30;;;;;;;2.73;2.10;;;;;;;10.48;79.29;95058.53;5125744;27;20700;-79
2022/10/04 03:03:29;;;;;;;3.90;2.30;;;;;;;10.36;79.99;95062.81;5114722;27;20171;-79
2022/10/04 03:06:05;;;;;;;2.77;1.97;;;;;;;10.42;80.15;95064.63;5128746;27;20169;-80
2022/10/04 03:08:52;;;;;;;1.87;1.70;;;;;;;10.40;79.87;95064.81;5116396;27;20247;-80
2022/10/04 03:11:21;;;;;;;4.03;1.80;;;;;;;10.36;79.96;95052.28;5125892;27;20691;-80
2022/10/04 03:13:50;;;;;;;3.30;1.67;;;;;;;10.43;79.69;95063.59;5118754;27;20639;-80
2022/10/04 03:16:16;;;;;;;2.20;1.60;;;;;;;10.07;80.18;95032.44;5118572;27;20254;-80
2022/10/04 03:18:44;;;;;;;5.07;2.00;;;;;;;10.32;80.06;95074.75;5126683;27;20563;-80
2022/10/04 03:21:13;;;;;;;2.87;2.20;;;;;;;10.32;79.90;95064.22;5114544;27;20591;-80
2022/10/04 03:23:40;;;;;;;2.97;2.30;;;;;;;10.36;80.03;95071.50;5110141;27;20174;-80
2022/10/04 03:26:44;;;;;;;4.97;2.67;;;;;;;10.49;79.95;95076.75;5112309;27;20255;-79
2022/10/04 03:29:12;;;;;;;2.13;1.90;;;;;;;10.54;79.42;95087.50;5124003;27;20164;-80
2022/10/04 03:31:47;;;;;;;3.73;2.00;;;;;;;10.52;79.18;95080.81;5120054;27;20573;-79
2022/10/04 03:34:19;;;;;;;3.70;1.97;;;;;;;10.49;79.35;95089.09;5115815;27;20168;-80
2022/10/04 03:36:48;;;;;;;4.73;2.20;;;;;;;10.42;79.28;95083.03;5117232;27;20192;-80
2022/10/04 03:39:26;;;;;;;8.53;2.43;;;;;;;10.50;79.38;95085.47;5108876;28;20677;-80
2022/10/04 03:41:52;;;;;;;2.80;2.10;;;;;;;10.53;79.64;95100.84;5100217;28;20221;-80
2022/10/04 03:44:18;;;;;;;5.23;3.20;;;;;;;10.23;80.04;95050.47;5114239;27;20205;-80
2022/10/04 03:46:45;;;;;;;5.57;3.10;;;;;;;10.60;79.47;95096.38;5119119;27;20180;-80
2022/10/04 03:49:28;;;;;;;5.77;3.70;;;;;;;10.41;79.35;95063.81;5119575;27;20165;-80
2022/10/04 03:51:55;;;;;;;5.27;3.17;;;;;;;10.61;79.20;95095.38;5115836;27;21885;-80
2022/10/04 03:54:26;;;;;;;7.10;4.20;;;;;;;10.62;79.68;95094.38;5119518;27;20180;-80
2022/10/04 03:56:53;;;;;;;7.90;4.43;;;;;;;10.47;79.74;95077.97;5117133;27;20180;-80
2022/10/04 03:59:20;;;;;;;4.57;3.17;;;;;;;10.53;79.81;95098.22;5124610;27;20563;-80
2022/10/04 04:01:53;;;;;;;4.33;3.00;;;;;;;10.47;80.21;95085.84;5125875;27;20247;-80
2022/10/04 04:04:34;;;;;;;7.33;3.27;;;;;;;10.39;80.37;95086.06;5121891;27;20236;-80
2022/10/04 04:07:11;;;;;;;4.87;3.40;;;;;;;10.26;80.57;95076.38;5121917;27;20168;-80
2022/10/04 04:09:52;;;;;;;6.33;3.57;;;;;;;10.36;80.44;95099.66;5120077;27;20251;-81
2022/10/04 04:12:33;;;;;;;6.80;3.57;;;;;;;10.31;80.51;95108.13;5128080;27;20171;-80
2022/10/04 04:15:00;;;;;;;8.43;3.17;;;;;;;10.29;80.67;95110.16;5133174;27;20172;-80
2022/10/04 04:17:26;;;;;;;5.80;2.83;;;;;;;10.26;80.08;95112.41;5133601;27;20156;-80
2022/10/04 04:19:58;;;;;;;3.03;2.30;;;;;;;10.19;80.58;95115.84;5130578;27;20168;-80
2022/10/04 04:22:30;;;;;;;3.23;2.50;;;;;;;10.05;80.89;95098.38;5115161;27;20580;-81
2022/10/04 04:25:10;;;;;;;6.10;2.60;;;;;;;10.17;81.14;95122.28;5122625;27;20167;-81
2022/10/04 04:27:39;;;;;;;4.20;2.33;;;;;;;10.15;81.42;95127.72;5120627;27;20581;-79
2022/10/04 04:30:07;;;;;;;3.40;2.30;;;;;;;10.17;81.39;95124.91;5118823;27;20192;-80
2022/10/04 04:32:41;;;;;;;4.23;2.53;;;;;;;10.08;81.19;95110.34;5116557;28;20206;-81
2022/10/04 04:35:29;;;;;;;4.87;2.70;;;;;;;10.12;81.32;95136.03;5126315;28;20175;-80
2022/10/04 04:38:24;;;;;;;5.47;2.47;;;;;;;10.12;81.28;95128.13;5107920;28;20164;-81
2022/10/04 04:40:54;;;;;;;3.50;2.77;;;;;;;9.85;81.21;95105.47;5100744;28;20177;-81
2022/10/04 04:43:23;;;;;;;4.03;3.07;;;;;;;9.93;81.13;95122.88;5112206;28;20221;-81
2022/10/04 04:45:49;;;;;;;8.30;4.80;;;;;;;10.00;80.48;95123.69;5111974;28;20233;-81
2022/10/04 04:48:17;;;;;;;9.47;5.03;;;;;;;10.03;80.78;95129.31;5112061;28;20176;-81
2022/10/04 04:50:57;;;;;;;10.80;6.07;;;;;;;10.14;80.77;95122.66;5111636;28;20191;-81
2022/10/04 04:53:32;;;;;;;13.20;7.27;;;;;;;10.07;80.07;95104.25;5114876;28;20161;-81
2022/10/04 04:56:00;;;;;;;23.13;6.60;;;;;;;10.20;80.05;95130.59;5115869;28;20164;-81
2022/10/04 04:58:31;;;;;;;10.17;5.00;;;;;;;10.27;80.02;95138.50;5116217;28;20584;-81
2022/10/04 05:01:05;;;;;;;11.17;5.90;;;;;;;10.27;79.57;95138.50;5115854;28;20177;-81
2022/10/04 05:03:32;;;;;;;13.77;6.50;;;;;;;10.49;79.13;95133.84;5115823;28;20708;-81
2022/10/04 05:06:01;;;;;;;12.07;5.53;;;;;;;10.97;78.40;95121.25;5116050;28;20165;-81
2022/10/04 05:08:29;;;;;;;8.30;4.50;;;;;;;12.15;74.05;95142.84;5115902;28;20655;-81
2022/10/04 05:11:28;;;;;;;11.57;4.27;;;;;;;12.47;71.49;95147.06;5116152;28;20212;-81
2022/10/04 05:14:05;;;;;;;8.03;4.63;;;;;;;12.59;71.02;95149.84;5091255;28;20188;-81
2022/10/04 05:16:50;;;;;;;5.90;3.50;;;;;;;12.89;71.96;95145.47;5116093;28;20252;-81
2022/10/04 05:19:20;;;;;;;8.40;3.50;;;;;;;14.22;69.17;95148.22;5115645;28;20586;-81
2022/10/04 05:21:47;;;;;;;11.50;3.23;;;;;;;16.15;61.73;95153.34;5115910;28;20678;-79
2022/10/04 05:24:30;;;;;;;5.47;2.70;;;;;;;18.23;54.71;95159.06;5115940;28;20165;-79
2022/10/04 05:27:00;;;;;;;7.00;2.83;;;;;;;19.66;51.20;95151.16;5115546;28;20222;-79
2022/10/04 05:29:31;;;;;;;4.18;3.03;;;;;;;20.76;48.13;95154.44;5115654;28;20588;-79
2022/10/04 05:32:04;;;;;;;6.95;3.25;;;;;;;22.06;45.21;95163.34;5115507;28;20189;-79
2022/10/04 05:34:39;;;;;;;5.90;2.53;;;;;;;23.44;41.26;95165.94;5115633;28;20179;-79
2022/10/04 05:37:19;;;;;;;8.70;5.20;;;;;;;22.96;41.62;95163.09;5115827;28;20187;-79
2022/10/04 05:40:12;;;;;;;8.98;4.07;;;;;;;24.34;40.08;95168.72;5115445;28;20169;-79
2022/10/04 05:42:45;;;;;;;7.78;4.38;;;;;;;25.03;37.97;95164.50;5109304;28;20799;-80
2022/10/04 05:45:18;;;;;;;8.30;2.88;;;;;;;24.39;37.87;95169.44;5115596;28;20715;-79
2022/10/04 05:47:48;;;;;;;7.32;2.53;;;;;;;25.36;37.65;95176.06;5107240;28;20177;-79
2022/10/04 05:50:27;;;;;;;5.00;2.20;;;;;;;26.66;34.44;95153.03;5114937;27;20185;-80
2022/10/04 05:53:09;;;;;;;2.15;1.85;;;;;;;28.14;31.79;95148.22;5115170;28;20157;-80
2022/10/04 05:55:55;;;;;;;2.78;1.75;;;;;;;29.60;29.15;95188.22;5115080;28;20200;-80
2022/10/04 05:58:52;;;;;;;11.98;2.05;;;;;;;30.08;26.63;95189.88;5115594;28;20573;-80
2022/10/04 06:01:45;;;;;;;12.30;1.90;;;;;;;31.07;24.97;95193.78;5115227;27;20229;-80
2022/10/04 06:04:29;;;;;;;10.30;2.70;;;;;;;32.01;24.22;95202.19;5108791;28;20644;-81
2022/10/04 06:07:11;;;;;;;3.33;1.50;;;;;;;32.37;24.17;95204.19;5115191;28;20173;-80
2022/10/04 06:09:45;;;;;;;3.25;1.23;;;;;;;32.72;22.96;95209.19;5115239;28;20153;-80
2022/10/04 06:12:19;;;;;;;1.20;1.10;;;;;;;32.71;23.18;95199.41;5114842;28;20163;-80
2022/10/04 06:15:08;;;;;;;3.78;1.35;;;;;;;33.09;22.74;95212.66;5114733;28;20635;-80
2022/10/04 06:17:48;;;;;;;3.97;1.42;;;;;;;33.28;21.64;95218.31;5114903;28;20256;-80
2022/10/04 06:20:45;;;;;;;2.70;1.60;;;;;;;33.38;21.87;95220.56;5111300;28;20165;-81
2022/10/04 06:23:23;;;;;;;5.60;2.22;;;;;;;33.28;22.20;95221.84;5109556;28;20600;-80
2022/10/04 06:25:55;;;;;;;3.53;1.63;;;;;;;33.16;21.93;95230.03;5114406;28;20231;-80
2022/10/04 06:28:33;;;;;;;1.70;1.52;;;;;;;33.36;21.57;95222.06;5114229;28;20177;-81
2022/10/04 06:31:14;;;;;;;3.97;1.50;;;;;;;33.54;22.30;95226.09;5114170;28;20201;-81
2022/10/04 06:33:39;;;;;;;3.53;1.50;;;;;;;33.96;21.56;95230.00;5113864;28;20636;-81
2022/10/04 06:36:20;;;;;;;4.35;1.70;;;;;;;33.76;21.74;95228.28;5114066;28;20187;-80
2022/10/04 06:39:06;;;;;;;4.72;2.28;;;;;;;33.54;21.96;95234.28;5114233;28;20605;-80
2022/10/04 06:41:45;;;;;;;5.82;2.15;;;;;;;33.37;22.01;95223.66;5105682;28;20642;-81
2022/10/04 06:44:48;;;;;;;5.07;1.45;;;;;;;32.42;23.05;95233.97;5114289;28;20173;-81
2022/10/04 06:47:25;;;;;;;3.10;1.23;;;;;;;30.53;24.78;95241.00;5108624;28;20167;-80
2022/10/04 06:50:05;;;;;;;2.40;1.25;;;;;;;29.16;26.12;95229.25;5113981;28;20647;-80
2022/10/04 06:52:54;;;;;;;2.97;1.48;;;;;;;27.42;28.72;95226.97;5114068;28;20180;-79
2022/10/04 06:55:29;;;;;;;3.45;1.48;;;;;;;26.61;31.03;95231.50;5102907;28;20221;-81
2022/10/04 06:58:32;;;;;;;6.80;2.17;;;;;;;26.40;31.75;95235.72;5119373;27;20180;-80
2022/10/04 07:01:10;;;;;;;5.78;1.60;;;;;;;25.94;31.74;95233.09;5105677;28;20695;-80
2022/10/04 07:03:56;;;;;;;2.17;1.33;;;;;;;25.30;32.47;95231.97;5113004;28;20614;-81
2022/10/04 07:06:39;;;;;;;1.70;1.60;;;;;;;24.91;33.33;95220.72;5113663;28;20214;-80
2022/10/04 07:09:14;;;;;;;1.45;1.35;;;;;;;24.98;33.93;95237.34;5113407;28;20177;-79
2022/10/04 07:12:07;;;;;;;1.67;1.40;;;;;;;24.59;33.33;95171.03;5113029;28;20188;-80
2022/10/04 07:14:43;;;;;;;2.60;1.48;;;;;;;24.90;33.21;95240.66;5115241;27;20183;-80
2022/10/04 07:17:18;;;;;;;3.05;1.30;;;;;;;25.12;33.83;95238.19;5112166;28;20244;-81
2022/10/04 07:19:51;;;;;;;2.75;1.58;;;;;;;25.32;32.42;95253.25;5109593;28;20168;-81
2022/10/04 07:22:40;;;;;;;2.72;1.60;;;;;;;24.76;32.86;95240.56;5113170;28;20199;-80
2022/10/04 07:25:20;;;;;;;2.88;1.30;;;;;;;24.43;34.63;95243.16;5112942;28;20157;-80
2022/10/04 07:31:02;;;;;;;3.95;2.05;;;;;;;23.02;36.17;95242.56;5113147;28;20211;-80
2022/10/04 07:33:30;;;;;;;3.30;2.53;;;;;;;21.72;37.60;95248.94;5111265;28;20172;-79
2022/10/04 07:36:12;;;;;;;2.95;2.38;;;;;;;20.61;40.03;95236.28;5113080;28;20188;-79
2022/10/04 07:39:03;;;;;;;3.67;2.00;;;;;;;19.76;41.01;95237.50;5105143;28;20169;-81
2022/10/04 07:41:34;;;;;;;2.75;1.50;;;;;;;19.18;43.15;95252.56;5125729;27;20245;-80
2022/10/04 07:44:30;;;;;;;1.48;1.38;;;;;;;18.38;44.57;95250.66;5118520;27;20165;-80
2022/10/04 07:47:28;;;;;;;2.88;1.60;;;;;;;17.70;46.48;95259.13;5112883;28;20165;-79
2022/10/04 07:49:54;;;;;;;1.63;1.40;;;;;;;17.03;48.01;95266.31;5108662;28;20254;-79
2022/10/04 07:52:40;;;;;;;1.48;1.38;;;;;;;16.54;49.09;95257.94;5115333;27;20164;-83
2022/10/04 07:55:23;;;;;;;4.00;2.58;;;;;;;16.23;50.07;95260.03;5112608;28;20184;-82
2022/10/04 07:58:08;;;;;;;3.00;1.67;;;;;;;15.93;52.16;95264.72;5088910;28;20176;-81
2022/10/04 08:00:47;;;;;;;2.20;1.45;;;;;;;15.74;53.40;95263.25;5121241;27;20161;-81
2022/10/04 08:03:36;;;;;;;3.47;1.80;;;;;;;15.70;54.15;95268.22;5102934;28;20168;-81
2022/10/04 08:06:16;;;;;;;1.55;1.45;;;;;;;15.58;53.55;95253.31;5111999;28;20237;-82
2022/10/04 08:09:02;;;;;;;2.57;1.67;;;;;;;15.56;53.61;95266.03;5110328;28;20172;-82
2022/10/04 08:11:49;;;;;;;1.80;1.40;;;;;;;15.40;55.04;95241.75;5110910;28;20193;-81
2022/10/04 08:14:29;;;;;;;2.47;1.50;;;;;;;15.79;55.29;95247.44;5108211;28;20169;-83
2022/10/04 08:17:13;;;;;;;2.08;1.50;;;;;;;16.33;54.68;95280.69;5112135;28;20184;-81
2022/10/04 08:19:41;;;;;;;2.75;1.60;;;;;;;16.45;53.38;95270.00;5104976;28;20168;-80
2022/10/04 08:22:22;;;;;;;3.70;1.80;;;;;;;16.29;51.79;95266.25;5111520;28;20168;-82
2022/10/04 08:25:16;;;;;;;1.90;1.80;;;;;;;16.15;52.46;95270.22;5110075;28;20160;-81
2022/10/04 08:31:03;;;;;;;2.05;1.15;;;;;;;17.12;53.53;95262.19;5108289;28;20199;-80
2022/10/04 08:33:46;;;;;;;3.80;1.40;;;;;;;17.28;50.68;95258.72;5112661;28;20172;-80
2022/10/04 08:36:23;;;;;;;3.42;1.40;;;;;;;17.24;51.64;95262.91;5112276;28;20222;-80
2022/10/04 08:38:56;;;;;;;1.73;1.63;;;;;;;16.97;49.59;95260.06;5112323;28;20210;-80
2022/10/04 08:41:41;;;;;;;2.22;1.60;;;;;;;16.40;51.76;95230.88;5113201;28;20207;-80
2022/10/04 08:44:59;;;;;;;5.68;2.17;;;;;;;16.13;52.13;95261.66;5130733;28;20225;-81
2022/10/04 08:47:53;;;;;;;5.00;2.33;;;;;;;15.95;54.32;95264.47;5049822;28;20646;-83
2022/10/04 08:50:40;;;;;;;2.22;1.65;;;;;;;15.81;53.86;95266.59;5051367;28;20301;-80
2022/10/04 08:53:42;;;;;;;6.23;1.90;;;;;;;15.77;54.19;95270.75;5101510;28;20193;-81
2022/10/04 08:56:44;;;;;;;3.20;2.00;;;;;;;15.65;54.55;95276.06;5116081;28;20171;-81
2022/10/04 08:59:34;;;;;;;3.40;2.33;;;;;;;15.48;55.63;95267.94;5127841;28;20168;-81
2022/10/04 09:02:12;;;;;;;2.75;1.80;;;;;;;15.52;57.13;95272.81;5111788;28;20644;-79
2022/10/04 09:04:56;;;;;;;4.03;2.23;;;;;;;15.88;57.09;95263.81;5113944;28;20178;-80
2022/10/04 09:07:39;;;;;;;3.35;2.30;;;;;;;16.32;57.27;95273.75;5112020;28;20162;-80
2022/10/04 09:10:35;;;;;;;3.00;1.63;;;;;;;16.97;56.31;95252.09;5112396;28;20161;-80
2022/10/04 09:13:30;;;;;;;2.40;1.80;;;;;;;17.85;56.06;95261.19;5112148;28;20161;-79
2022/10/04 09:16:18;;;;;;;2.17;1.52;;;;;;;18.42;50.25;95259.75;5093701;28;20177;-82
2022/10/04 09:19:11;;;;;;;2.08;1.50;;;;;;;18.36;48.48;95263.44;5112084;28;20239;-81
2022/10/04 09:21:45;;;;;;;3.35;2.00;;;;;;;18.56;49.07;95264.72;5112158;28;20149;-83
2022/10/04 09:24:20;;;;;;;1.77;1.52;;;;;;;18.83;49.10;95260.25;5111833;28;20176;-81
2022/10/04 09:27:06;;;;;;;4.57;1.65;;;;;;;18.66;47.77;95246.19;5111897;28;20654;-85
2022/10/04 09:29:44;;;;;;;26.25;1.95;;;;;;;18.43;46.13;95272.03;5096894;28;20180;-82
2022/10/04 09:32:42;;;;;;;1.92;1.40;;;;;;;17.92;47.28;95254.63;5117148;28;20192;-85
2022/10/04 09:35:36;;;;;;;1.92;1.23;;;;;;;17.75;47.70;95277.00;5115086;28;20169;-82
2022/10/04 09:38:17;;;;;;;2.33;1.60;;;;;;;17.59;48.42;95273.31;5095433;28;20922;-82
2022/10/04 09:41:00;;;;;;;1.63;1.25;;;;;;;17.11;48.63;95269.38;5118790;27;20195;-84
2022/10/04 09:43:45;;;;;;;1.95;1.52;;;;;;;17.00;51.72;95280.06;5093224;28;20252;-82
2022/10/04 09:46:27;;;;;;;2.05;1.40;;;;;;;16.90;51.86;95273.53;5110390;28;20624;-82
2022/10/04 09:49:20;;;;;;;2.42;1.63;;;;;;;17.00;52.45;95278.22;5111920;28;20184;-82
2022/10/04 09:52:11;;;;;;;4.65;1.67;;;;;;;17.02;51.94;95246.06;5111156;28;20284;-82
2022/10/04 09:55:34;;;;;;;3.22;2.17;;;;;;;17.35;51.94;95278.00;5111327;28;20240;-83
2022/10/04 09:58:50;;;;;;;2.88;1.60;;;;;;;17.77;50.20;95272.25;5030239;28;20263;-84
2022/10/04 10:01:27;;;;;;;4.40;1.92;;;;;;;17.63;51.03;95227.34;4971735;28;20181;-82
2022/10/04 10:04:04;;;;;;;3.53;2.08;;;;;;;18.09;49.82;95274.03;5101689;28;20184;-85
2022/10/04 10:06:39;;;;;;;3.97;1.98;;;;;;;18.10;48.83;95272.97;5112862;28;20184;-85
2022/10/04 10:13:38;;;;;;;2.53;1.80;;;;;;;18.01;47.90;95247.81;5113024;28;20620;-84
2022/10/04 10:15:58;;;;;;;3.80;1.60;;;;;;;18.25;47.78;95267.03;5074287;28;20250;-84
2022/10/04 10:18:26;;;;;;;3.90;1.60;;;;;;;18.20;49.42;95274.16;5111504;28;20704;-84
2022/10/04 10:20:55;;;;;;;4.00;1.70;;;;;;;18.13;48.63;95279.69;5112513;28;20165;-84
2022/10/04 10:23:40;;;;;;;3.45;1.92;;;;;;;18.00;49.58;95272.03;5112883;28;20172;-84
2022/10/04 10:26:25;;;;;;;8.07;4.30;;;;;;;17.79;48.52;95276.28;5112068;28;20672;-83
2022/10/04 10:28:50;;;;;;;5.22;3.25;;;;;;;17.65;49.02;95278.47;5112310;28;20176;-84
2022/10/04 10:31:39;;;;;;;2.53;1.98;;;;;;;17.35;48.65;95254.03;5112508;28;20192;-84
2022/10/04 10:34:20;;;;;;;8.13;5.35;;;;;;;17.39;49.83;95270.31;5111031;28;20663;-84
2022/10/04 10:36:59;;;;;;;4.70;3.25;;;;;;;17.37;50.87;95278.56;5112445;28;20690;-84
2022/10/04 10:39:42;;;;;;;2.20;2.00;;;;;;;17.41;51.63;95257.59;5111032;28;20530;-84
2022/10/04 10:42:32;;;;;;;2.95;1.85;;;;;;;17.53;49.57;95276.94;5110909;28;20205;-83
2022/10/04 10:45:09;;;;;;;4.75;3.05;;;;;;;17.41;49.12;95271.69;5112660;28;20624;-84
2022/10/04 10:47:47;;;;;;;4.22;3.33;;;;;;;17.39;51.21;95278.31;5112223;28;20188;-84
2022/10/04 10:50:57;;;;;;;3.53;2.65;;;;;;;17.32;50.20;95281.13;5111990;28;20189;-84
2022/10/04 10:53:57;;;;;;;3.70;3.38;;;;;;;17.31;49.25;95279.53;5029419;28;20192;-84
2022/10/04 10:56:40;;;;;;;7.38;3.40;;;;;;;17.08;50.58;95277.81;5012800;28;20179;-84
2022/10/04 10:59:54;;;;;;;10.13;6.95;;;;;;;17.05;51.75;95280.97;5092001;28;20568;-84
2022/10/04 11:02:48;;;;;;;1.92;1.75;;;;;;;16.60;50.20;95225.91;5038888;28;20274;-84
2022/10/04 11:05:41;;;;;;;4.65;1.83;;;;;;;16.92;50.47;95282.09;5111625;28;20169;-84
2022/10/04 11:08:38;;;;;;;2.25;1.85;;;;;;;16.81;49.28;95274.97;5110424;28;20208;-84
2022/10/04 11:11:35;;;;;;;3.30;1.70;;;;;;;16.77;51.86;95284.47;5111463;28;20571;-83
2022/10/04 11:14:12;;;;;;;1.63;1.50;;;;;;;16.73;50.30;95280.66;5111297;28;20165;-83
2022/10/04 11:17:15;;;;;;;3.67;1.85;;;;;;;16.62;50.85;95270.06;5111394;28;20180;-84
2022/10/04 11:20:23;;;;;;;2.03;1.90;;;;;;;16.72;52.37;95281.72;5111384;28;20221;-83
2022/10/04 11:23:19;;;;;;;5.93;1.83;;;;;;;16.81;51.42;95276.81;5078378;28;20208;-83
2022/10/04 11:26:09;;;;;;;5.65;1.63;;;;;;;16.71;51.21;95268.66;5110174;28;20675;-84
2022/10/04 11:28:48;;;;;;;1.60;1.50;;;;;;;16.64;52.25;95274.13;5111324;28;20188;-84
2022/10/04 11:31:32;;;;;;;2.15;1.80;;;;;;;16.58;52.16;95275.84;5102889;28;20188;-84
2022/10/04 11:34:29;;;;;;;6.22;3.53;;;;;;;16.50;52.36;95256.81;5111076;28;20568;-84
2022/10/04 11:37:00;;;;;;;4.68;2.00;;;;;;;16.65;53.98;95273.06;5109782;28;20208;-84
2022/10/04 11:39:43;;;;;;;2.97;1.80;;;;;;;16.70;52.26;95273.16;5111211;28;20227;-83
2022/10/04 11:42:27;;;;;;;3.40;1.50;;;;;;;16.72;52.52;95275.59;5110739;28;20775;-83
2022/10/04 11:45:16;;;;;;;3.65;1.92;;;;;;;16.72;51.58;95271.06;5110960;28;20268;-84
2022/10/04 11:47:54;;;;;;;5.85;2.00;;;;;;;16.47;51.66;95273.22;5111124;28;20264;-84
2022/10/04 11:50:41;;;;;;;2.30;1.92;;;;;;;16.45;53.14;95276.13;5110663;28;20283;-84
2022/10/04 11:53:24;;;;;;;2.38;1.63;;;;;;;16.58;52.62;95275.03;5111413;28;20283;-84
2022/10/04 11:56:11;;;;;;;3.25;2.30;;;;;;;16.48;50.92;95274.84;5109517;28;20602;-83
2022/10/04 11:58:54;;;;;;;2.83;1.80;;;;;;;16.51;53.31;95282.38;5110710;28;20177;-84
2022/10/04 12:01:54;;;;;;;3.50;2.05;;;;;;;16.56;52.52;95282.44;5109436;28;20610;-84
2022/10/04 12:04:56;;;;;;;7.25;2.50;;;;;;;16.71;52.93;95274.78;5110664;28;20648;-84
2022/10/04 12:07:55;;;;;;;2.53;2.20;;;;;;;16.76;51.95;95277.53;5110509;28;20184;-84
2022/10/04 12:10:39;;;;;;;4.38;1.77;;;;;;;16.62;51.82;95238.97;5110538;28;20272;-84
2022/10/04 12:13:26;;;;;;;2.53;1.83;;;;;;;17.01;49.51;95287.00;5110306;28;20181;-83
2022/10/04 12:16:04;;;;;;;2.75;1.83;;;;;;;17.15;49.76;95281.13;5110703;28;20738;-84
2022/10/04 12:19:18;;;;;;;4.40;1.75;;;;;;;17.34;50.86;95281.72;5110345;28;20180;-84
2022/10/04 12:21:57;;;;;;;3.67;1.70;;;;;;;17.52;50.15;95278.00;5085655;28;20190;-84
2022/10/04 12:25:01;;;;;;;3.00;1.80;;;;;;;17.64;49.20;95276.88;5110525;28;20181;-83
2022/10/04 12:27:37;;;;;;;1.50;1.40;;;;;;;17.66;47.67;95285.41;5110288;28;20172;-84
2022/10/04 12:30:19;;;;;;;1.70;1.60;;;;;;;17.48;46.90;95282.97;5105442;28;20172;-83
2022/10/04 12:33:02;;;;;;;2.15;1.88;;;;;;;17.37;49.15;95283.91;5110271;28;20212;-84
2022/10/04 12:35:57;;;;;;;3.15;1.67;;;;;;;17.24;49.83;95278.88;5110434;28;20220;-84
2022/10/04 12:38:35;;;;;;;4.60;2.08;;;;;;;17.20;50.09;95275.09;5104598;28;20690;-83
2022/10/04 12:41:40;;;;;;;3.65;1.95;;;;;;;17.31;49.91;95292.81;5112017;28;20698;-83
2022/10/04 12:44:39;;;;;;;1.77;1.67;;;;;;;17.26;49.40;95287.44;5100477;28;20204;-82
2022/10/04 12:47:23;;;;;;;3.50;2.25;;;;;;;17.20;49.56;95294.53;5098104;28;20165;-81